createdAt,value
2018-09-17T00:00:19.355Z,13.50
2018-09-17T00:01:19.323Z,13.45
2018-09-17T00:02:19.254Z,13.43
2018-09-17T00:03:19.232Z,13.52
2018-09-17T00:04:19.191Z,13.43
2018-09-17T00:05:19.107Z,13.43
2018-09-17T00:06:19.060Z,13.38
2018-09-17T00:07:19.008Z,13.38
2018-09-17T00:08:18.972Z,13.37
2018-09-17T00:09:18.935Z,13.41
2018-09-17T00:10:18.856Z,13.38
2018-09-17T00:11:18.815Z,13.38
2018-09-17T00:12:18.764Z,13.35
2018-09-17T00:13:18.714Z,13.27
2018-09-17T00:14:18.688Z,13.30
2018-09-17T00:15:18.630Z,13.30
2018-09-17T00:16:18.560Z,13.27
2018-09-17T00:17:18.512Z,13.26
2018-09-17T00:18:18.462Z,13.30
2018-09-17T00:19:18.446Z,13.19
2018-09-17T00:20:18.362Z,13.16
2018-09-17T00:21:18.312Z,13.21
2018-09-17T00:22:18.267Z,13.21
2018-09-17T00:23:18.213Z,13.19
2018-09-17T00:24:18.197Z,13.16
2018-09-17T00:25:18.110Z,13.12
2018-09-17T00:26:18.070Z,13.21
2018-09-17T00:27:18.032Z,13.11
2018-09-17T00:28:18.021Z,13.06
2018-09-17T00:29:17.960Z,13.03
2018-09-17T00:30:17.874Z,13.09
2018-09-17T00:31:17.825Z,13.03
2018-09-17T00:32:17.768Z,13.03
2018-09-17T00:33:17.714Z,13.00
2018-09-17T00:34:17.698Z,12.97
2018-09-17T00:35:17.618Z,12.91
2018-09-17T00:36:17.567Z,13.05
2018-09-17T00:37:17.519Z,13.00
2018-09-17T00:38:17.468Z,12.91
2018-09-17T00:39:17.440Z,12.93
2018-09-17T00:40:17.371Z,12.91
2018-09-17T00:41:17.331Z,12.97
2018-09-17T00:42:17.266Z,12.87
2018-09-17T00:43:17.221Z,12.88
2018-09-17T00:44:17.220Z,12.91
2018-09-17T00:45:17.123Z,12.90
2018-09-17T00:46:17.068Z,12.90
2018-09-17T00:47:17.013Z,12.94
2018-09-17T00:48:16.981Z,12.79
2018-09-17T00:49:16.950Z,12.83
2018-09-17T00:50:16.879Z,12.97
2018-09-17T00:51:16.815Z,12.76
2018-09-17T00:52:16.774Z,12.79
2018-09-17T00:53:16.728Z,12.78
2018-09-17T00:54:16.693Z,12.79
2018-09-17T00:55:16.623Z,12.76
2018-09-17T00:56:16.577Z,12.75
2018-09-17T00:57:16.516Z,12.73
2018-09-17T00:58:16.466Z,12.71
2018-09-17T00:59:16.443Z,12.68
2018-09-17T01:00:16.368Z,12.64
2018-09-17T01:01:16.318Z,12.65
2018-09-17T01:02:16.276Z,12.60
2018-09-17T01:03:16.220Z,12.64
2018-09-17T01:04:16.210Z,12.60
2018-09-17T01:05:16.117Z,12.57
2018-09-17T01:06:16.068Z,12.61
2018-09-17T01:07:16.021Z,12.60
2018-09-17T01:08:15.969Z,12.54
2018-09-17T01:09:15.954Z,12.61
2018-09-17T01:10:15.882Z,12.60
2018-09-17T01:11:15.815Z,12.53
2018-09-17T01:12:15.769Z,12.54
2018-09-17T01:13:15.724Z,12.55
2018-09-17T01:14:15.702Z,12.57
2018-09-17T01:15:15.618Z,12.40
2018-09-17T01:16:15.575Z,12.47
2018-09-17T01:17:15.518Z,12.53
2018-09-17T01:18:15.473Z,12.57
2018-09-17T01:19:15.445Z,12.45
2018-09-17T01:20:15.368Z,12.51
2018-09-17T01:21:15.315Z,12.39
2018-09-17T01:22:15.270Z,12.40
2018-09-17T01:23:15.218Z,12.35
2018-09-17T01:24:15.195Z,12.46
2018-09-17T01:25:15.140Z,12.39
2018-09-17T01:26:15.077Z,12.42
2018-09-17T01:27:15.035Z,12.50
2018-09-17T01:28:14.972Z,12.39
2018-09-17T01:29:14.955Z,12.43
2018-09-17T01:30:14.880Z,12.40
2018-09-17T01:31:14.830Z,12.42
2018-09-17T01:32:14.771Z,12.43
2018-09-17T01:33:14.715Z,12.39
2018-09-17T01:34:14.674Z,12.50
2018-09-17T01:35:14.659Z,12.38
2018-09-17T01:36:14.570Z,12.38
2018-09-17T01:37:14.533Z,12.42
2018-09-17T01:38:14.466Z,12.36
2018-09-17T01:39:14.414Z,12.36
2018-09-17T01:40:14.396Z,12.39
2018-09-17T01:41:14.318Z,12.38
2018-09-17T01:42:14.278Z,12.32
2018-09-17T01:43:14.220Z,12.42
2018-09-17T01:44:14.169Z,12.36
2018-09-17T01:45:14.141Z,12.38
2018-09-17T01:46:14.120Z,12.25
2018-09-17T01:47:14.014Z,12.28
2018-09-17T01:48:13.979Z,12.30
2018-09-17T01:49:13.924Z,12.30
2018-09-17T01:50:13.893Z,12.27
2018-09-17T01:51:13.820Z,12.21
2018-09-17T01:52:13.777Z,12.22
2018-09-17T01:53:13.721Z,12.24
2018-09-17T01:54:13.667Z,12.14
2018-09-17T01:55:13.642Z,12.10
2018-09-17T01:56:13.564Z,12.17
2018-09-17T01:57:13.515Z,12.20
2018-09-17T01:58:13.464Z,12.14
2018-09-17T01:59:13.420Z,12.09
2018-09-17T02:00:13.400Z,12.20
2018-09-17T02:01:13.316Z,12.10
2018-09-17T02:02:13.266Z,12.10
2018-09-17T02:03:13.229Z,12.13
2018-09-17T02:04:13.165Z,12.09
2018-09-17T02:05:13.138Z,12.13
2018-09-17T02:06:13.064Z,12.07
2018-09-17T02:07:13.013Z,12.02
2018-09-17T02:08:13.022Z,12.02
2018-09-17T02:09:13.012Z,12.02
2018-09-17T02:10:12.904Z,12.00
2018-09-17T02:11:12.817Z,12.03
2018-09-17T02:12:12.766Z,12.00
2018-09-17T02:13:12.713Z,12.00
2018-09-17T02:14:12.660Z,11.97
2018-09-17T02:15:12.647Z,11.95
2018-09-17T02:16:12.559Z,12.05
2018-09-17T02:17:12.507Z,11.95
2018-09-17T02:18:12.460Z,12.03
2018-09-17T02:19:12.408Z,11.99
2018-09-17T02:20:12.397Z,12.02
2018-09-17T02:21:12.310Z,11.99
2018-09-17T02:22:12.264Z,11.99
2018-09-17T02:23:12.210Z,12.00
2018-09-17T02:24:12.154Z,12.07
2018-09-17T02:25:12.158Z,12.05
2018-09-17T02:26:12.077Z,11.95
2018-09-17T02:27:12.006Z,12.03
2018-09-17T02:28:11.955Z,12.07
2018-09-17T02:29:11.907Z,12.09
2018-09-17T02:30:11.886Z,12.06
2018-09-17T02:31:11.803Z,12.09
2018-09-17T02:32:11.753Z,12.06
2018-09-17T02:33:11.719Z,12.10
2018-09-17T02:34:11.659Z,12.14
2018-09-17T02:35:11.640Z,12.13
2018-09-17T02:36:11.556Z,12.24
2018-09-17T02:37:11.507Z,12.18
2018-09-17T02:38:11.459Z,12.21
2018-09-17T02:39:11.410Z,12.17
2018-09-17T02:40:11.392Z,12.22
2018-09-17T02:41:11.313Z,12.10
2018-09-17T02:42:11.257Z,12.13
2018-09-17T02:43:11.210Z,12.13
2018-09-17T02:44:11.156Z,12.05
2018-09-17T02:45:11.151Z,12.05
2018-09-17T02:46:11.054Z,12.14
2018-09-17T02:47:11.007Z,12.07
2018-09-17T02:48:10.953Z,12.07
2018-09-17T02:49:10.914Z,12.00
2018-09-17T02:50:10.853Z,11.96
2018-09-17T02:51:10.846Z,11.99
2018-09-17T02:52:10.769Z,12.00
2018-09-17T02:53:10.708Z,11.99
2018-09-17T02:54:10.649Z,11.95
2018-09-17T02:55:10.619Z,11.99
2018-09-17T02:56:10.588Z,11.96
2018-09-17T02:57:10.503Z,11.97
2018-09-17T02:58:10.448Z,11.95
2018-09-17T02:59:10.400Z,11.95
2018-09-17T03:00:10.359Z,11.99
2018-09-17T03:01:10.327Z,11.88
2018-09-17T03:02:10.268Z,11.91
2018-09-17T03:03:10.201Z,11.97
2018-09-17T03:04:10.150Z,11.99
2018-09-17T03:05:10.100Z,12.07
2018-09-17T03:06:10.077Z,12.06
2018-09-17T03:07:10.003Z,12.06
2018-09-17T03:08:09.948Z,12.14
2018-09-17T03:09:09.912Z,12.09
2018-09-17T03:10:09.857Z,12.20
2018-09-17T03:11:09.824Z,12.20
2018-09-17T03:12:09.745Z,12.20
2018-09-17T03:13:09.702Z,12.24
2018-09-17T03:14:09.651Z,12.30
2018-09-17T03:15:09.595Z,12.28
2018-09-17T03:16:09.571Z,12.25
2018-09-17T03:17:09.529Z,12.28
2018-09-17T03:18:09.452Z,12.20
2018-09-17T03:19:09.410Z,12.20
2018-09-17T03:20:09.342Z,12.18
2018-09-17T03:21:09.332Z,12.22
2018-09-17T03:22:09.242Z,12.15
2018-09-17T03:23:09.193Z,12.13
2018-09-17T03:24:09.156Z,12.07
2018-09-17T03:25:09.102Z,12.09
2018-09-17T03:26:09.063Z,12.13
2018-09-17T03:27:09.025Z,12.07
2018-09-17T03:28:08.947Z,12.07
2018-09-17T03:29:08.894Z,12.06
2018-09-17T03:30:08.843Z,12.00
2018-09-17T03:31:08.814Z,12.00
2018-09-17T03:32:08.744Z,11.97
2018-09-17T03:33:08.706Z,11.97
2018-09-17T03:34:08.647Z,11.95
2018-09-17T03:35:08.590Z,11.96
2018-09-17T03:36:08.577Z,11.97
2018-09-17T03:37:08.489Z,11.96
2018-09-17T03:38:08.439Z,11.90
2018-09-17T03:39:08.393Z,11.96
2018-09-17T03:40:08.342Z,11.91
2018-09-17T03:41:08.312Z,11.91
2018-09-17T03:42:08.243Z,11.91
2018-09-17T03:43:08.187Z,11.97
2018-09-17T03:44:08.144Z,11.87
2018-09-17T03:45:08.092Z,11.87
2018-09-17T03:46:08.122Z,11.88
2018-09-17T03:47:07.988Z,11.87
2018-09-17T03:48:07.950Z,11.88
2018-09-17T03:49:07.901Z,11.95
2018-09-17T03:50:07.854Z,11.87
2018-09-17T03:51:07.831Z,11.87
2018-09-17T03:52:07.733Z,11.91
2018-09-17T03:53:07.687Z,11.90
2018-09-17T03:54:07.638Z,11.88
2018-09-17T03:55:07.589Z,11.83
2018-09-17T03:56:07.540Z,11.90
2018-09-17T03:57:07.516Z,11.88
2018-09-17T03:58:07.440Z,11.91
2018-09-17T03:59:07.400Z,11.91
2018-09-17T04:00:07.333Z,12.00
2018-09-17T04:01:07.321Z,11.83
2018-09-17T04:02:07.257Z,11.95
2018-09-17T04:03:07.183Z,11.95
2018-09-17T04:04:07.143Z,11.84
2018-09-17T04:05:07.081Z,11.97
2018-09-17T04:06:07.043Z,11.96
2018-09-17T04:07:07.015Z,11.84
2018-09-17T04:08:06.935Z,11.90
2018-09-17T04:09:06.877Z,11.87
2018-09-17T04:10:06.827Z,11.88
2018-09-17T04:11:06.784Z,11.90
2018-09-17T04:12:06.785Z,11.86
2018-09-17T04:13:06.689Z,11.77
2018-09-17T04:14:06.632Z,11.80
2018-09-17T04:15:06.586Z,11.88
2018-09-17T04:16:06.528Z,11.83
2018-09-17T04:17:06.532Z,11.79
2018-09-17T04:18:06.448Z,11.74
2018-09-17T04:19:06.380Z,11.81
2018-09-17T04:20:06.328Z,11.77
2018-09-17T04:21:06.274Z,11.77
2018-09-17T04:22:06.252Z,11.74
2018-09-17T04:23:06.178Z,11.80
2018-09-17T04:24:06.122Z,11.71
2018-09-17T04:25:06.077Z,11.77
2018-09-17T04:26:06.024Z,11.69
2018-09-17T04:27:06.007Z,11.74
2018-09-17T04:28:05.934Z,11.71
2018-09-17T04:29:05.873Z,11.66
2018-09-17T04:30:05.834Z,11.68
2018-09-17T04:31:05.791Z,11.69
2018-09-17T04:32:05.757Z,11.74
2018-09-17T04:33:05.754Z,11.58
2018-09-17T04:34:05.618Z,11.61
2018-09-17T04:35:05.576Z,11.61
2018-09-17T04:36:05.516Z,11.62
2018-09-17T04:37:05.497Z,11.61
2018-09-17T04:38:05.418Z,11.68
2018-09-17T04:39:05.368Z,11.69
2018-09-17T04:40:05.319Z,11.65
2018-09-17T04:41:05.269Z,11.66
2018-09-17T04:42:05.271Z,11.65
2018-09-17T04:43:05.176Z,11.74
2018-09-17T04:44:05.118Z,11.71
2018-09-17T04:45:05.065Z,11.79
2018-09-17T04:46:05.015Z,11.79
2018-09-17T04:47:04.987Z,11.68
2018-09-17T04:48:04.913Z,11.71
2018-09-17T04:49:04.861Z,11.83
2018-09-17T04:50:04.813Z,11.72
2018-09-17T04:51:04.764Z,11.76
2018-09-17T04:52:04.746Z,11.77
2018-09-17T04:53:04.665Z,11.65
2018-09-17T04:54:04.649Z,11.69
2018-09-17T04:55:04.577Z,11.79
2018-09-17T04:56:04.575Z,11.81
2018-09-17T04:57:04.535Z,11.79
2018-09-17T04:58:04.449Z,11.84
2018-09-17T04:59:04.362Z,11.87
2018-09-17T05:00:04.376Z,12.00
2018-09-17T05:01:04.267Z,11.87
2018-09-17T05:02:04.235Z,12.00
2018-09-17T05:03:04.165Z,11.88
2018-09-17T05:04:04.108Z,11.91
2018-09-17T05:05:04.085Z,11.95
2018-09-17T05:06:04.008Z,11.87
2018-09-17T05:07:03.984Z,11.91
2018-09-17T05:08:03.919Z,11.88
2018-09-17T05:09:03.873Z,11.97
2018-09-17T05:10:03.802Z,11.86
2018-09-17T05:11:03.757Z,11.88
2018-09-17T05:12:03.730Z,11.88
2018-09-17T05:13:03.737Z,11.81
2018-09-17T05:14:03.616Z,11.80
2018-09-17T05:15:03.566Z,11.80
2018-09-17T05:16:03.512Z,11.86
2018-09-17T05:17:03.449Z,11.76
2018-09-17T05:18:03.451Z,11.71
2018-09-17T05:19:03.354Z,11.77
2018-09-17T05:20:03.305Z,11.83
2018-09-17T05:21:03.250Z,11.79
2018-09-17T05:22:03.212Z,11.80
2018-09-17T05:23:03.204Z,11.74
2018-09-17T05:24:03.096Z,11.79
2018-09-17T05:25:03.077Z,11.95
2018-09-17T05:26:03.008Z,11.86
2018-09-17T05:27:02.956Z,11.90
2018-09-17T05:28:02.931Z,11.90
2018-09-17T05:29:02.861Z,11.90
2018-09-17T05:30:02.795Z,11.86
2018-09-17T05:31:02.773Z,11.84
2018-09-17T05:32:02.712Z,11.86
2018-09-17T05:33:02.683Z,11.83
2018-09-17T05:34:02.594Z,11.83
2018-09-17T05:35:02.579Z,11.87
2018-09-17T05:36:02.512Z,11.84
2018-09-17T05:37:02.455Z,11.87
2018-09-17T05:38:02.428Z,11.90
2018-09-17T05:39:02.348Z,11.88
2018-09-17T05:40:02.292Z,11.97
2018-09-17T05:41:02.258Z,11.96
2018-09-17T05:42:02.196Z,11.95
2018-09-17T05:43:02.161Z,11.99
2018-09-17T05:44:02.113Z,12.00
2018-09-17T05:45:02.048Z,12.02
2018-09-17T05:46:02.106Z,12.02
2018-09-17T05:47:01.953Z,12.07
2018-09-17T05:48:01.917Z,12.06
2018-09-17T05:49:01.847Z,12.10
2018-09-17T05:50:01.790Z,12.06
2018-09-17T05:51:01.740Z,12.09
2018-09-17T05:52:01.692Z,12.07
2018-09-17T05:53:01.661Z,12.05
2018-09-17T05:54:01.589Z,12.13
2018-09-17T05:55:01.548Z,12.14
2018-09-17T05:56:01.512Z,12.10
2018-09-17T05:57:01.435Z,12.17
2018-09-17T05:58:01.407Z,12.20
2018-09-17T05:59:01.333Z,12.30
2018-09-17T06:00:01.284Z,12.32
2018-09-17T06:01:01.238Z,12.24
2018-09-17T06:02:01.183Z,12.27
2018-09-17T06:03:01.216Z,12.25
2018-09-17T06:04:01.082Z,12.36
2018-09-17T06:05:01.038Z,12.33
2018-09-17T06:06:01.000Z,12.36
2018-09-17T06:07:00.984Z,12.39
2018-09-17T06:08:00.911Z,12.42
2018-09-17T06:09:00.836Z,12.45
2018-09-17T06:10:00.793Z,12.36
2018-09-17T06:11:00.750Z,12.50
2018-09-17T06:12:00.681Z,12.47
2018-09-17T06:13:00.663Z,12.57
2018-09-17T06:14:00.581Z,12.60
2018-09-17T06:15:00.538Z,12.68
2018-09-17T06:16:00.495Z,12.65
2018-09-17T06:17:00.474Z,12.76
2018-09-17T06:18:00.408Z,12.76
2018-09-17T06:19:00.331Z,12.79
2018-09-17T06:20:00.284Z,12.82
2018-09-17T06:21:00.231Z,12.97
2018-09-17T06:22:00.181Z,12.93
2018-09-17T06:23:00.155Z,12.97
2018-09-17T06:24:00.087Z,12.98
2018-09-17T06:25:00.032Z,13.08
2018-09-17T06:25:59.985Z,13.06
2018-09-17T06:26:59.930Z,13.12
2018-09-17T06:27:59.958Z,13.12
2018-09-17T06:28:59.834Z,13.19
2018-09-17T06:29:59.784Z,13.18
2018-09-17T06:30:59.732Z,13.21
2018-09-17T06:31:59.681Z,13.33
2018-09-17T06:32:59.672Z,13.26
2018-09-17T06:33:59.581Z,13.35
2018-09-17T06:34:59.533Z,13.49
2018-09-17T06:35:59.484Z,13.55
2018-09-17T06:36:59.461Z,13.47
2018-09-17T06:37:59.417Z,13.50
2018-09-17T06:38:59.337Z,13.65
2018-09-17T06:39:59.285Z,13.65
2018-09-17T06:40:59.238Z,13.71
2018-09-17T06:41:59.193Z,13.75
2018-09-17T06:42:59.153Z,13.86
2018-09-17T06:44:06.141Z,13.89
2018-09-17T06:44:59.073Z,13.89
2018-09-17T06:45:58.990Z,13.96
2018-09-17T06:46:58.942Z,14.00
2018-09-17T06:47:58.889Z,14.01
2018-09-17T06:49:00.736Z,13.96
2018-09-17T06:49:58.789Z,14.03
2018-09-17T06:50:58.738Z,14.00
2018-09-17T06:51:58.693Z,13.95
2018-09-17T06:52:58.651Z,14.00
2018-09-17T06:53:58.616Z,14.15
2018-09-17T06:54:58.539Z,14.05
2018-09-17T06:55:58.494Z,14.08
2018-09-17T06:56:58.442Z,14.23
2018-09-17T06:57:58.731Z,14.14
2018-09-17T06:58:58.364Z,14.26
2018-09-17T06:59:58.295Z,14.37
2018-09-17T07:00:58.246Z,14.40
2018-09-17T07:01:58.200Z,14.43
2018-09-17T07:02:58.152Z,14.50
2018-09-17T07:03:58.126Z,14.59
2018-09-17T07:04:58.052Z,14.58
2018-09-17T07:05:58.041Z,14.48
2018-09-17T07:06:57.951Z,14.59
2018-09-17T07:07:57.904Z,14.62
2018-09-17T07:08:57.882Z,14.51
2018-09-17T07:09:57.803Z,14.63
2018-09-17T07:10:57.751Z,14.66
2018-09-17T07:11:57.709Z,14.74
2018-09-17T07:12:57.656Z,14.88
2018-09-17T07:13:57.630Z,14.99
2018-09-17T07:14:57.563Z,15.03
2018-09-17T07:15:57.516Z,15.17
2018-09-17T07:16:57.464Z,15.27
2018-09-17T07:17:57.447Z,15.33
2018-09-17T07:18:57.387Z,15.52
2018-09-17T07:19:57.310Z,15.58
2018-09-17T07:20:57.267Z,15.79
2018-09-17T07:21:57.218Z,15.77
2018-09-17T07:22:57.167Z,15.88
2018-09-17T07:23:57.147Z,15.88
2018-09-17T07:24:57.073Z,15.87
2018-09-17T07:25:57.024Z,16.00
2018-09-17T07:26:56.973Z,16.01
2018-09-17T07:27:56.925Z,16.06
2018-09-17T07:28:56.903Z,16.09
2018-09-17T07:29:56.831Z,16.16
2018-09-17T07:30:56.782Z,16.35
2018-09-17T07:31:56.764Z,16.38
2018-09-17T07:32:56.685Z,16.43
2018-09-17T07:33:56.664Z,16.51
2018-09-17T07:34:56.586Z,16.54
2018-09-17T07:35:56.536Z,16.66
2018-09-17T07:36:56.491Z,16.72
2018-09-17T07:37:56.443Z,16.80
2018-09-17T07:38:56.416Z,16.83
2018-09-17T07:39:56.351Z,16.84
2018-09-17T07:40:56.301Z,16.87
2018-09-17T07:41:56.268Z,16.84
2018-09-17T07:42:56.201Z,16.96
2018-09-17T07:43:56.179Z,16.99
2018-09-17T07:44:56.101Z,17.09
2018-09-17T07:45:56.060Z,17.23
2018-09-17T07:46:56.009Z,17.30
2018-09-17T07:47:55.990Z,17.35
2018-09-17T07:48:55.937Z,17.41
2018-09-17T07:49:55.877Z,17.59
2018-09-17T07:50:55.818Z,17.73
2018-09-17T07:51:55.768Z,17.71
2018-09-17T07:52:55.770Z,17.73
2018-09-17T07:53:55.695Z,17.65
2018-09-17T07:54:55.638Z,17.64
2018-09-17T07:55:55.584Z,17.63
2018-09-17T07:56:55.531Z,17.60
2018-09-17T07:57:55.488Z,17.59
2018-09-17T07:58:55.518Z,17.71
2018-09-17T07:59:55.388Z,17.82
2018-09-17T08:00:55.336Z,17.80
2018-09-17T08:01:55.290Z,17.88
2018-09-17T08:02:55.248Z,17.94
2018-09-17T08:03:55.222Z,18.05
2018-09-17T08:04:55.155Z,18.15
2018-09-17T08:05:55.107Z,18.18
2018-09-17T08:06:55.054Z,18.13
2018-09-17T08:07:55.017Z,18.16
2018-09-17T08:08:54.983Z,18.18
2018-09-17T08:09:54.910Z,18.10
2018-09-17T08:10:54.869Z,18.15
2018-09-17T08:11:54.836Z,18.23
2018-09-17T08:12:54.772Z,18.13
2018-09-17T08:13:54.728Z,18.12
2018-09-17T08:14:54.711Z,18.10
2018-09-17T08:15:54.679Z,18.10
2018-09-17T08:16:54.588Z,18.19
2018-09-17T08:17:54.550Z,18.09
2018-09-17T08:18:54.491Z,18.12
2018-09-17T08:19:54.471Z,18.10
2018-09-17T08:20:54.392Z,18.10
2018-09-17T08:21:54.346Z,18.18
2018-09-17T08:22:54.305Z,18.30
2018-09-17T08:23:54.249Z,18.35
2018-09-17T08:24:54.229Z,18.40
2018-09-17T08:25:54.157Z,18.44
2018-09-17T08:26:54.111Z,18.56
2018-09-17T08:27:54.069Z,18.46
2018-09-17T08:28:54.015Z,18.48
2018-09-17T08:29:53.998Z,18.43
2018-09-17T08:30:53.926Z,18.49
2018-09-17T08:31:53.871Z,18.46
2018-09-17T08:32:53.833Z,18.58
2018-09-17T08:33:53.782Z,18.55
2018-09-17T08:34:53.771Z,18.62
2018-09-17T08:35:53.690Z,18.66
2018-09-17T08:36:53.637Z,18.75
2018-09-17T08:37:53.598Z,18.78
2018-09-17T08:38:53.566Z,18.80
2018-09-17T08:39:53.539Z,18.85
2018-09-17T08:40:53.448Z,18.90
2018-09-17T08:41:53.408Z,18.77
2018-09-17T08:42:53.363Z,18.89
2018-09-17T08:43:53.314Z,18.86
2018-09-17T08:44:53.295Z,18.95
2018-09-17T08:45:53.217Z,18.99
2018-09-17T08:46:53.171Z,19.18
2018-09-17T08:47:53.121Z,19.27
2018-09-17T08:48:53.083Z,19.44
2018-09-17T08:49:53.057Z,19.49
2018-09-17T08:50:52.990Z,19.49
2018-09-17T08:51:52.934Z,19.48
2018-09-17T08:52:52.917Z,19.46
2018-09-17T08:53:52.851Z,19.48
2018-09-17T08:54:52.840Z,19.48
2018-09-17T08:55:52.747Z,19.46
2018-09-17T08:56:52.700Z,19.56
2018-09-17T08:57:52.660Z,19.69
2018-09-17T08:58:52.617Z,19.48
2018-09-17T08:59:52.587Z,19.62
2018-09-17T09:00:52.526Z,19.69
2018-09-17T09:01:52.471Z,19.70
2018-09-17T09:02:52.426Z,19.66
2018-09-17T09:03:52.416Z,19.70
2018-09-17T09:04:52.355Z,19.69
2018-09-17T09:05:52.296Z,19.62
2018-09-17T09:06:52.277Z,19.60
2018-09-17T09:07:52.191Z,19.66
2018-09-17T09:08:52.147Z,19.74
2018-09-17T09:09:52.125Z,19.82
2018-09-17T09:10:52.056Z,19.85
2018-09-17T09:11:52.004Z,19.78
2018-09-17T09:12:51.955Z,19.73
2018-09-17T09:13:51.911Z,19.73
2018-09-17T09:14:51.904Z,19.69
2018-09-17T09:15:51.823Z,19.62
2018-09-17T09:16:51.773Z,19.64
2018-09-17T09:17:51.724Z,19.63
2018-09-17T09:18:51.681Z,19.60
2018-09-17T09:19:51.636Z,19.52
2018-09-17T09:20:51.614Z,19.51
2018-09-17T09:21:51.553Z,19.51
2018-09-17T09:22:51.499Z,19.67
2018-09-17T09:23:51.449Z,19.63
2018-09-17T09:24:51.401Z,19.70
2018-09-17T09:25:51.382Z,19.82
2018-09-17T09:26:51.308Z,19.78
2018-09-17T09:27:51.261Z,19.78
2018-09-17T09:28:51.216Z,19.84
2018-09-17T09:29:51.165Z,19.89
2018-09-17T09:30:51.159Z,19.99
2018-09-17T09:31:51.078Z,20.03
2018-09-17T09:32:51.029Z,20.18
2018-09-17T09:33:50.982Z,20.26
2018-09-17T09:34:50.934Z,20.18
2018-09-17T09:35:50.917Z,20.22
2018-09-17T09:36:50.845Z,20.22
2018-09-17T09:37:50.793Z,20.19
2018-09-17T09:38:50.750Z,20.18
2018-09-17T09:39:50.709Z,20.21
2018-09-17T09:40:50.699Z,20.21
2018-09-17T09:41:50.611Z,20.18
2018-09-17T09:42:50.564Z,20.22
2018-09-17T09:43:50.520Z,20.14
2018-09-17T09:44:50.475Z,20.29
2018-09-17T09:45:50.422Z,20.31
2018-09-17T09:46:50.409Z,20.43
2018-09-17T09:47:50.335Z,20.60
2018-09-17T09:48:50.292Z,20.63
2018-09-17T09:49:50.245Z,20.74
2018-09-17T09:50:50.195Z,20.67
2018-09-17T09:51:50.176Z,20.63
2018-09-17T09:52:50.115Z,20.62
2018-09-17T09:53:50.061Z,20.80
2018-09-17T09:54:50.011Z,20.89
2018-09-17T09:55:49.968Z,20.96
2018-09-17T09:56:49.945Z,20.78
2018-09-17T09:57:49.871Z,20.81
2018-09-17T09:58:49.832Z,20.81
2018-09-17T09:59:49.789Z,20.87
2018-09-17T10:00:49.737Z,20.82
2018-09-17T10:01:49.714Z,20.99
2018-09-17T10:02:49.644Z,20.82
2018-09-17T10:03:49.601Z,20.75
2018-09-17T10:04:49.566Z,20.89
2018-09-17T10:05:49.527Z,20.90
2018-09-17T10:06:49.489Z,21.02
2018-09-17T10:07:49.420Z,20.95
2018-09-17T10:08:49.386Z,20.92
2018-09-17T10:09:49.321Z,20.95
2018-09-17T10:10:49.283Z,20.97
2018-09-17T10:11:49.286Z,21.03
2018-09-17T10:12:49.192Z,21.03
2018-09-17T10:13:49.141Z,20.95
2018-09-17T10:14:49.102Z,21.03
2018-09-17T10:15:49.053Z,21.08
2018-09-17T10:16:49.038Z,21.15
2018-09-17T10:17:48.959Z,21.17
2018-09-17T10:18:48.914Z,21.27
2018-09-17T10:19:48.870Z,21.30
2018-09-17T10:20:48.826Z,21.40
2018-09-17T10:21:48.805Z,21.33
2018-09-17T10:22:48.738Z,21.37
2018-09-17T10:23:48.688Z,21.50
2018-09-17T10:24:48.645Z,21.42
2018-09-17T10:25:48.591Z,21.47
2018-09-17T10:26:48.575Z,21.45
2018-09-17T10:27:48.503Z,21.36
2018-09-17T10:28:48.460Z,21.47
2018-09-17T10:29:48.451Z,21.43
2018-09-17T10:30:48.388Z,21.35
2018-09-17T10:31:48.350Z,21.29
2018-09-17T10:32:48.278Z,21.20
2018-09-17T10:33:48.234Z,21.29
2018-09-17T10:34:48.193Z,21.17
2018-09-17T10:35:48.152Z,21.29
2018-09-17T10:36:48.171Z,21.27
2018-09-17T10:37:48.061Z,21.12
2018-09-17T10:38:48.006Z,21.29
2018-09-17T10:39:47.970Z,21.36
2018-09-17T10:40:47.912Z,21.33
2018-09-17T10:41:47.873Z,21.42
2018-09-17T10:42:47.848Z,21.40
2018-09-17T10:43:47.775Z,21.42
2018-09-17T10:44:47.733Z,21.58
2018-09-17T10:45:47.684Z,21.43
2018-09-17T10:46:47.660Z,21.50
2018-09-17T10:47:47.664Z,21.58
2018-09-17T10:48:47.550Z,21.57
2018-09-17T10:49:47.506Z,21.59
2018-09-17T10:50:47.465Z,21.69
2018-09-17T10:51:47.411Z,21.55
2018-09-17T10:52:47.397Z,21.69
2018-09-17T10:53:47.318Z,21.84
2018-09-17T10:54:47.277Z,21.77
2018-09-17T10:55:47.234Z,21.89
2018-09-17T10:56:47.188Z,21.90
2018-09-17T10:57:47.175Z,22.03
2018-09-17T10:58:47.096Z,22.03
2018-09-17T10:59:47.052Z,22.10
2018-09-17T11:00:47.014Z,22.04
2018-09-17T11:01:46.968Z,22.07
2018-09-17T11:02:46.939Z,22.11
2018-09-17T11:03:46.872Z,22.11
2018-09-17T11:04:46.827Z,22.17
2018-09-17T11:05:46.776Z,22.14
2018-09-17T11:06:46.737Z,22.17
2018-09-17T11:07:46.717Z,22.11
2018-09-17T11:08:46.646Z,22.07
2018-09-17T11:09:46.597Z,22.13
2018-09-17T11:10:46.554Z,22.17
2018-09-17T11:11:46.507Z,22.13
2018-09-17T11:12:46.491Z,22.14
2018-09-17T11:13:46.416Z,22.15
2018-09-17T11:14:46.374Z,22.20
2018-09-17T11:15:46.326Z,22.20
2018-09-17T11:16:46.284Z,22.22
2018-09-17T11:17:46.316Z,22.25
2018-09-17T11:18:46.192Z,22.38
2018-09-17T11:19:46.146Z,22.36
2018-09-17T11:20:46.109Z,22.36
2018-09-17T11:21:46.054Z,22.36
2018-09-17T11:22:46.038Z,22.40
2018-09-17T11:23:45.965Z,22.47
2018-09-17T11:24:45.923Z,22.44
2018-09-17T11:25:45.876Z,22.45
2018-09-17T11:26:45.832Z,22.47
2018-09-17T11:27:45.818Z,22.44
2018-09-17T11:28:45.743Z,22.47
2018-09-17T11:29:45.697Z,22.53
2018-09-17T11:30:45.655Z,22.45
2018-09-17T11:31:45.611Z,22.51
2018-09-17T11:32:45.591Z,22.47
2018-09-17T11:33:45.525Z,22.47
2018-09-17T11:34:45.469Z,22.44
2018-09-17T11:35:45.430Z,22.51
2018-09-17T11:36:45.383Z,22.54
2018-09-17T11:37:45.361Z,22.66
2018-09-17T11:38:45.299Z,22.66
2018-09-17T11:39:45.256Z,22.66
2018-09-17T11:40:45.214Z,22.68
2018-09-17T11:41:45.170Z,22.69
2018-09-17T11:42:45.149Z,22.70
2018-09-17T11:43:45.072Z,22.65
2018-09-17T11:44:45.087Z,22.68
2018-09-17T11:45:44.977Z,22.66
2018-09-17T11:46:45.044Z,22.62
2018-09-17T11:47:44.929Z,22.65
2018-09-17T11:48:44.878Z,22.63
2018-09-17T11:49:44.800Z,22.69
2018-09-17T11:50:44.755Z,22.78
2018-09-17T11:51:44.791Z,22.73
2018-09-17T11:52:44.663Z,22.73
2018-09-17T11:53:44.642Z,22.75
2018-09-17T11:54:44.592Z,22.72
2018-09-17T11:55:44.528Z,22.80
2018-09-17T11:56:44.481Z,22.88
2018-09-17T11:57:44.435Z,22.88
2018-09-17T11:58:44.459Z,22.88
2018-09-17T11:59:44.353Z,22.87
2018-09-17T12:00:44.302Z,22.87
2018-09-17T12:01:44.313Z,22.87
2018-09-17T12:02:44.213Z,22.95
2018-09-17T12:03:44.197Z,22.96
2018-09-17T12:04:44.122Z,23.06
2018-09-17T12:05:44.075Z,22.96
2018-09-17T12:06:44.047Z,23.09
2018-09-17T12:07:44.014Z,23.00
2018-09-17T12:08:43.977Z,23.03
2018-09-17T12:09:43.898Z,22.99
2018-09-17T12:10:43.865Z,23.02
2018-09-17T12:11:43.808Z,22.98
2018-09-17T12:12:43.795Z,22.98
2018-09-17T12:13:43.771Z,23.09
2018-09-17T12:14:43.673Z,23.14
2018-09-17T12:15:43.630Z,23.05
2018-09-17T12:16:43.596Z,23.10
2018-09-17T12:17:43.544Z,23.13
2018-09-17T12:18:43.519Z,23.02
2018-09-17T12:19:43.455Z,23.14
2018-09-17T12:20:43.407Z,23.13
2018-09-17T12:21:43.361Z,23.07
2018-09-17T12:22:43.313Z,23.20
2018-09-17T12:23:43.302Z,23.17
2018-09-17T12:24:43.224Z,23.18
2018-09-17T12:25:43.184Z,23.27
2018-09-17T12:26:43.135Z,23.33
2018-09-17T12:27:43.098Z,23.36
2018-09-17T12:28:43.074Z,23.38
2018-09-17T12:29:43.001Z,23.38
2018-09-17T12:30:42.959Z,23.36
2018-09-17T12:31:42.919Z,23.37
2018-09-17T12:32:42.867Z,23.43
2018-09-17T12:33:42.912Z,23.40
2018-09-17T12:34:42.782Z,23.46
2018-09-17T12:35:42.737Z,23.51
2018-09-17T12:36:42.689Z,23.46
2018-09-17T12:37:42.649Z,23.44
2018-09-17T12:38:42.633Z,23.46
2018-09-17T12:39:42.553Z,23.44
2018-09-17T12:40:42.512Z,23.46
2018-09-17T12:41:42.465Z,23.46
2018-09-17T12:42:42.422Z,23.47
2018-09-17T12:43:42.404Z,23.47
2018-09-17T12:44:42.335Z,23.51
2018-09-17T12:45:42.292Z,23.58
2018-09-17T12:46:42.243Z,23.53
2018-09-17T12:47:42.199Z,23.53
2018-09-17T12:48:42.183Z,23.56
2018-09-17T12:49:42.109Z,23.68
2018-09-17T12:50:42.066Z,23.63
2018-09-17T12:51:42.027Z,23.71